createdAt,value
2018-02-09T00:02:03.859Z,-4.00
2018-02-09T00:04:30.653Z,-4.10
2018-02-09T00:06:58.027Z,-4.10
2018-02-09T00:09:25.698Z,-4.00
2018-02-09T00:11:52.441Z,-4.00
2018-02-09T00:14:19.260Z,-4.10
2018-02-09T00:16:46.057Z,-4.30
2018-02-09T00:19:12.945Z,-4.40
2018-02-09T00:21:39.719Z,-4.50
2018-02-09T00:24:06.529Z,-4.50
2018-02-09T00:26:33.292Z,-4.60
2018-02-09T00:29:00.028Z,-4.50
2018-02-09T00:31:26.804Z,-4.60
2018-02-09T00:33:54.312Z,-4.50
2018-02-09T00:36:21.138Z,-4.60
2018-02-09T00:38:47.953Z,-4.60
2018-02-09T00:41:14.769Z,-4.60
2018-02-09T00:43:42.321Z,-4.60
2018-02-09T00:46:09.646Z,-4.60
2018-02-09T00:48:36.467Z,-4.60
2018-02-09T00:51:03.271Z,-4.50
2018-02-09T00:53:30.033Z,-4.40
2018-02-09T00:55:56.845Z,-4.50
2018-02-09T00:58:23.623Z,-4.60
2018-02-09T01:00:50.397Z,-4.80
2018-02-09T01:03:17.200Z,-4.80
2018-02-09T01:05:43.961Z,-4.70
2018-02-09T01:08:10.727Z,-4.70
2018-02-09T01:10:37.550Z,-4.60
2018-02-09T01:13:04.364Z,-4.70
2018-02-09T01:15:31.913Z,-4.80
2018-02-09T01:17:58.750Z,-4.80
2018-02-09T01:20:25.523Z,-4.80
2018-02-09T01:22:52.291Z,-5.00
2018-02-09T01:25:19.101Z,-5.10
2018-02-09T01:27:45.889Z,-5.10
2018-02-09T01:30:12.704Z,-5.10
2018-02-09T01:32:39.475Z,-5.10
2018-02-09T01:35:06.275Z,-5.10
2018-02-09T01:37:33.047Z,-4.90
2018-02-09T01:39:59.811Z,-4.70
2018-02-09T01:42:26.588Z,-4.90
2018-02-09T01:44:53.383Z,-5.10
2018-02-09T01:47:20.161Z,-5.00
2018-02-09T01:50:05.757Z,-4.90
2018-02-09T01:52:33.297Z,-4.80
2018-02-09T01:55:00.836Z,-4.80
2018-02-09T01:57:27.634Z,-4.80
2018-02-09T01:59:54.439Z,-4.80
2018-02-09T02:02:21.983Z,-4.60
2018-02-09T02:04:48.774Z,-4.60
2018-02-09T02:07:15.570Z,-4.60
2018-02-09T02:09:42.331Z,-4.60
2018-02-09T02:12:09.120Z,-4.80
2018-02-09T02:14:35.980Z,-4.70
2018-02-09T02:17:02.752Z,-4.80
2018-02-09T02:19:30.267Z,-5.00
2018-02-09T02:21:57.052Z,-5.00
2018-02-09T02:24:23.871Z,-4.90
2018-02-09T02:26:50.629Z,-4.90
2018-02-09T02:29:17.376Z,-5.00
2018-02-09T02:31:45.776Z,-4.70
2018-02-09T02:34:12.546Z,-4.70
2018-02-09T02:36:39.311Z,-4.60
2018-02-09T02:39:06.100Z,-4.60
2018-02-09T02:41:32.875Z,-4.50
2018-02-09T02:43:59.708Z,-4.40
2018-02-09T02:46:26.456Z,-4.70
2018-02-09T02:48:53.221Z,-4.70
2018-02-09T02:51:20.056Z,-4.90
2018-02-09T02:53:46.897Z,-4.90
2018-02-09T02:56:13.735Z,-5.10
2018-02-09T02:58:40.507Z,-5.20
2018-02-09T03:01:07.312Z,-5.00
2018-02-09T03:03:34.143Z,-5.20
2018-02-09T03:06:00.939Z,-5.20
2018-02-09T03:08:27.701Z,-5.10
2018-02-09T03:10:54.571Z,-5.00
2018-02-09T03:13:21.330Z,-4.90
2018-02-09T03:15:48.145Z,-5.00
2018-02-09T03:18:14.913Z,-5.20
2018-02-09T03:20:41.707Z,-5.20
2018-02-09T03:23:08.474Z,-5.10
2018-02-09T03:25:35.257Z,-5.00
2018-02-09T03:28:02.765Z,-5.00
2018-02-09T03:30:29.559Z,-5.00
2018-02-09T03:32:57.075Z,-5.00
2018-02-09T03:35:23.842Z,-5.10
2018-02-09T03:37:50.602Z,-5.10
2018-02-09T03:40:18.139Z,-5.40
2018-02-09T03:42:45.664Z,-5.50
2018-02-09T03:45:12.505Z,-5.50
2018-02-09T03:47:39.258Z,-5.20
2018-02-09T03:50:06.112Z,-5.10
2018-02-09T03:52:32.908Z,-5.30
2018-02-09T03:54:59.669Z,-5.20
2018-02-09T03:57:26.464Z,-4.90
2018-02-09T03:59:53.219Z,-4.90
2018-02-09T04:02:20.012Z,-5.20
2018-02-09T04:04:46.788Z,-5.20
2018-02-09T04:07:14.272Z,-5.00
2018-02-09T04:09:41.036Z,-5.00
2018-02-09T04:12:07.826Z,-4.80
2018-02-09T04:14:34.595Z,-4.90
2018-02-09T04:17:01.344Z,-5.10
2018-02-09T04:19:28.123Z,-5.00
2018-02-09T04:21:54.880Z,-5.10
2018-02-09T04:24:21.659Z,-5.10
2018-02-09T04:26:48.440Z,-5.10
2018-02-09T04:29:15.196Z,-5.20
2018-02-09T04:31:41.974Z,-5.20
2018-02-09T04:34:09.470Z,-5.30
2018-02-09T04:36:36.218Z,-5.30
2018-02-09T04:39:03.128Z,-5.30
2018-02-09T04:41:29.982Z,-5.40
2018-02-09T04:43:56.720Z,-5.20
2018-02-09T04:46:23.470Z,-5.30
2018-02-09T04:48:50.294Z,-5.40
2018-02-09T04:51:17.090Z,-5.30
2018-02-09T04:53:43.872Z,-5.00
2018-02-09T04:56:10.668Z,-4.90
2018-02-09T04:58:38.248Z,-4.90
2018-02-09T05:01:05.017Z,-4.70
2018-02-09T05:03:31.836Z,-4.60
2018-02-09T05:05:59.390Z,-4.20
2018-02-09T05:08:26.146Z,-4.20
2018-02-09T05:10:54.935Z,-4.00
2018-02-09T05:13:21.722Z,-4.10
2018-02-09T05:15:48.574Z,-4.10
2018-02-09T05:18:15.379Z,-4.20
2018-02-09T05:20:42.142Z,-4.60
2018-02-09T05:23:10.661Z,-4.60
2018-02-09T05:25:37.717Z,-4.60
2018-02-09T05:28:04.564Z,-4.70
2018-02-09T05:30:32.132Z,-4.70
2018-02-09T05:32:59.630Z,-4.80
2018-02-09T05:35:26.401Z,-4.80
2018-02-09T05:37:53.156Z,-4.80
2018-02-09T05:40:20.010Z,-4.80
2018-02-09T05:42:46.824Z,-4.90
2018-02-09T05:45:13.585Z,-4.70
2018-02-09T05:47:40.348Z,-4.90
2018-02-09T05:50:07.130Z,-4.70
2018-02-09T05:52:33.878Z,-4.80
2018-02-09T05:55:00.637Z,-4.80
2018-02-09T05:57:27.459Z,-4.70
2018-02-09T05:59:54.205Z,-4.80
2018-02-09T06:02:20.949Z,-4.80
2018-02-09T06:04:47.827Z,-4.90
2018-02-09T06:07:15.368Z,-4.90
2018-02-09T06:09:42.113Z,-4.90
2018-02-09T06:12:08.860Z,-4.80
2018-02-09T06:14:36.354Z,-4.90
2018-02-09T06:17:03.094Z,-4.90
2018-02-09T06:19:29.828Z,-4.90
2018-02-09T06:21:56.604Z,-4.70
2018-02-09T06:24:23.384Z,-4.60
2018-02-09T06:26:50.883Z,-4.60
2018-02-09T06:29:17.643Z,-4.60
2018-02-09T06:31:44.378Z,-4.60
2018-02-09T06:34:11.128Z,-4.50
2018-02-09T06:36:37.874Z,-4.40
2018-02-09T06:39:04.923Z,-4.40
2018-02-09T06:41:31.693Z,-4.30
2018-02-09T06:43:59.206Z,-4.40
2018-02-09T06:46:25.966Z,-4.50
2018-02-09T06:48:52.728Z,-4.30
2018-02-09T06:51:20.267Z,-4.30
2018-02-09T06:53:47.006Z,-4.30
2018-02-09T06:56:13.769Z,-4.30
2018-02-09T06:58:40.485Z,-4.30
2018-02-09T07:01:07.222Z,-4.40
2018-02-09T07:03:33.970Z,-4.30
2018-02-09T07:06:00.724Z,-4.20
2018-02-09T07:08:27.517Z,-4.10
2018-02-09T07:10:54.247Z,-4.10
2018-02-09T07:13:21.008Z,-4.10
2018-02-09T07:15:47.768Z,-4.10
2018-02-09T07:18:14.558Z,-4.10
2018-02-09T07:20:41.321Z,-3.90
2018-02-09T07:23:08.066Z,-4.00
2018-02-09T07:25:34.822Z,-4.00
2018-02-09T07:28:01.555Z,-3.90
2018-02-09T07:30:33.539Z,-4.00
2018-02-09T07:33:00.289Z,-4.00
2018-02-09T07:35:27.074Z,-3.90
2018-02-09T07:37:55.039Z,-3.60
2018-02-09T07:40:23.566Z,-3.50
2018-02-09T07:42:51.005Z,-3.70
2018-02-09T07:45:18.682Z,-3.90
2018-02-09T07:47:46.209Z,-4.00
2018-02-09T07:50:13.292Z,-3.90
2018-02-09T07:52:40.198Z,-3.90
2018-02-09T07:55:07.371Z,-3.90
2018-02-09T07:57:34.656Z,-3.90
2018-02-09T08:00:01.788Z,-3.90
2018-02-09T08:02:28.839Z,-3.80
2018-02-09T08:04:56.410Z,-3.70
2018-02-09T08:07:23.759Z,-3.60
2018-02-09T08:09:56.028Z,-3.30
2018-02-09T08:12:22.941Z,-3.20
2018-02-09T08:14:49.924Z,-3.20
2018-02-09T08:17:17.325Z,-3.40
2018-02-09T08:19:44.556Z,-3.30
2018-02-09T08:22:13.545Z,-3.30
2018-02-09T08:24:40.531Z,-3.10
2018-02-09T08:27:07.476Z,-3.10
2018-02-09T08:29:35.438Z,-3.10
2018-02-09T08:32:04.362Z,-2.90
2018-02-09T08:37:03.626Z,-2.90
2018-02-09T08:39:30.685Z,-2.90
2018-02-09T08:41:57.977Z,-3.00
2018-02-09T08:44:25.002Z,-2.90
2018-02-09T08:46:51.953Z,-2.80
2018-02-09T08:49:24.867Z,-2.60
2018-02-09T08:51:51.740Z,-2.60
2018-02-09T08:54:18.686Z,-2.40
2018-02-09T08:56:45.594Z,-2.30
2018-02-09T08:59:12.601Z,-2.30
2018-02-09T09:01:39.552Z,-2.20
2018-02-09T09:04:07.290Z,-2.10
2018-02-09T09:06:34.195Z,-2.10
2018-02-09T09:09:02.050Z,-2.00
2018-02-09T09:11:29.141Z,-1.90
2018-02-09T09:13:56.060Z,-1.90
2018-02-09T09:16:22.959Z,-1.90
2018-02-09T09:18:50.687Z,-1.80
2018-02-09T09:21:17.595Z,-1.80
2018-02-09T09:23:44.591Z,-1.60
2018-02-09T09:26:11.597Z,-1.40
2018-02-09T09:28:39.346Z,-1.40
2018-02-09T09:31:06.597Z,-1.30
2018-02-09T09:33:33.610Z,-1.20
2018-02-09T09:36:00.665Z,-1.40
2018-02-09T09:38:28.395Z,-1.40
2018-02-09T09:40:56.084Z,-1.10
2018-02-09T09:43:23.800Z,-1.00
2018-02-09T09:45:51.852Z,-1.10
2018-02-09T09:48:21.017Z,-0.90
2018-02-09T09:50:49.025Z,-0.90
2018-02-09T09:53:16.068Z,-1.00
2018-02-09T09:55:43.093Z,-0.80
2018-02-09T09:58:10.422Z,-0.70
2018-02-09T10:00:42.714Z,-0.70
2018-02-09T10:03:09.819Z,-0.60
2018-02-09T10:05:37.171Z,-0.60
2018-02-09T10:08:09.752Z,-0.40
2018-02-09T10:10:43.576Z,-0.40
2018-02-09T22:03:00.076Z,2.20
2018-02-09T22:05:28.449Z,2.30
2018-02-09T22:07:56.554Z,2.20
2018-02-09T22:10:24.504Z,2.20
2018-02-09T22:12:52.852Z,2.20
2018-02-09T23:24:23.749Z,2.00
